Time;durP1;ratioP1;P1;durP2;ratioP2;P2;SDS_P1;SDS_P2;PMS_P1;PMS_P2;Temp;Humidity;BMP_temperature;BMP_pressure;BME280_temperature;BME280_humidity;BME280_pressure;Samples;Min_cycle;Max_cycle;Signal;HPM_P1;HPM_P2
2021/11/13 00:00:08;;;;;;;84.87;43.87;;;0.70;99.90;;;;;;5100939;28;20464;-93
2021/11/13 00:02:35;;;;;;;34.97;21.47;;;;;;;;;;5097813;28;20464;-93
2021/11/13 00:05:03;;;;;;;27.93;18.70;;;;;;;;;;5093604;28;20437;-93
2021/11/13 00:07:30;;;;;;;29.40;17.83;;;;;;;;;;5097217;28;20456;-91
2021/11/13 00:09:58;;;;;;;24.50;17.17;;;;;;;;;;5098256;28;20458;-94
2021/11/13 00:12:25;;;;;;;22.53;15.27;;;;;;;;;;5096073;28;20491;-93
2021/11/13 00:14:52;;;;;;;25.77;16.57;;;;;;;;;;5094252;28;20455;-93
2021/11/13 00:17:21;;;;;;;22.13;15.00;;;;;;;;;;5097016;28;20532;-92
2021/11/13 00:19:48;;;;;;;24.23;15.87;;;;;;;;;;5098366;28;20456;-92
2021/11/13 00:22:15;;;;;;;21.77;15.87;;;;;;;;;;5095899;28;20433;-92
2021/11/13 00:24:43;;;;;;;19.50;13.30;;;;;;;;;;5095355;28;20457;-92
2021/11/13 00:27:11;;;;;;;20.60;15.50;;;;;;;;;;5097651;28;20454;-93
2021/11/13 00:29:38;;;;;;;22.70;16.27;;;;;;;;;;5096598;28;20459;-92
2021/11/13 00:32:06;;;;;;;24.33;16.67;;;;;;;;;;5095943;28;20480;-92
2021/11/13 00:34:33;;;;;;;23.40;15.70;;;;;;;;;;5095531;28;20464;-93
2021/11/13 00:37:00;;;;;;;25.33;16.20;;;;;;;;;;5097350;28;20447;-94
2021/11/13 00:39:28;;;;;;;22.77;14.17;;;;;;;;;;5094825;28;20433;-92
2021/11/13 00:41:55;;;;;;;24.50;15.20;;;;;;;;;;5097422;28;20452;-94
2021/11/13 00:44:24;;;;;;;19.97;14.70;;;;;;;;;;5100019;28;20824;-93
2021/11/13 00:46:51;;;;;;;24.50;16.00;;;;;;;;;;5101495;28;20821;-92
2021/11/13 00:49:19;;;;;;;44.57;20.83;;;;;;;;;;5103735;28;20820;-93
2021/11/13 00:51:46;;;;;;;93.97;37.40;;;;;;;;;;5095815;28;20485;-92
2021/11/13 00:54:14;;;;;;;73.73;33.30;;;0.40;99.90;;;;;;5097646;28;20484;-93
2021/11/13 00:56:41;;;;;;;125.87;41.93;;;;;;;;;;5102294;28;20457;-94
2021/11/13 00:59:08;;;;;;;74.50;34.73;;;;;;;;;;5107596;28;20430;-94
2021/11/13 01:01:37;;;;;;;77.07;32.27;;;0.30;99.90;;;;;;5121857;28;20439;-94
2021/11/13 01:04:04;;;;;;;60.77;29.30;;;;;;;;;;5105666;28;20455;-93
2021/11/13 01:06:31;;;;;;;60.23;28.20;;;;;;;;;;5100442;28;20451;-94
2021/11/13 01:08:58;;;;;;;61.10;26.70;;;;;;;;;;5102637;28;20445;-94
2021/11/13 01:11:27;;;;;;;39.40;21.70;;;;;;;;;;5096933;28;20461;-94
2021/11/13 01:13:55;;;;;;;30.60;18.03;;;;;;;;;;5100503;28;20548;-93
2021/11/13 01:16:22;;;;;;;28.40;17.17;;;;;;;;;;5098279;28;20459;-93
2021/11/13 01:18:50;;;;;;;31.53;18.20;;;;;;;;;;5098683;28;20448;-92
2021/11/13 01:21:17;;;;;;;23.53;16.90;;;;;;;;;;5101664;28;20486;-94
2021/11/13 01:23:44;;;;;;;29.70;15.60;;;;;;;;;;5111610;28;20456;-92
2021/11/13 01:26:12;;;;;;;25.43;18.07;;;;;;;;;;5118516;28;20459;-92
2021/11/13 01:28:39;;;;;;;35.90;21.47;;;;;;;;;;5120513;28;20431;-94
2021/11/13 01:31:07;;;;;;;31.60;19.30;;;;;;;;;;5119770;28;20446;-93
2021/11/13 01:33:34;;;;;;;26.17;17.27;;;;;;;;;;5109449;28;20538;-92
2021/11/13 01:36:02;;;;;;;28.00;17.17;;;;;;;;;;5099151;28;20447;-92
2021/11/13 01:38:32;;;;;;;26.27;17.57;;;;;;;;;;5099528;28;20458;-92
2021/11/13 01:41:00;;;;;;;26.50;16.37;;;;;;;;;;5098911;28;20444;-94
2021/11/13 01:43:27;;;;;;;24.67;16.33;;;;;;;;;;5100476;28;20530;-93
2021/11/13 01:45:54;;;;;;;24.87;16.23;;;;;;;;;;5100438;28;20464;-93
2021/11/13 01:48:21;;;;;;;25.63;16.97;;;;;;;;;;5098287;28;20455;-92
2021/11/13 01:50:48;;;;;;;24.37;16.00;;;;;;;;;;5101603;28;20453;-93
2021/11/13 01:53:16;;;;;;;24.00;16.40;;;0.50;99.90;;;;;;5101461;28;20497;-92
2021/11/13 01:55:44;;;;;;;26.87;16.30;;;;;;;;;;5101932;28;20455;-92
2021/11/13 01:58:13;;;;;;;23.87;16.50;;;0.70;99.90;;;;;;5107462;28;20447;-93
2021/11/13 02:00:42;;;;;;;28.07;16.70;;;0.70;99.90;;;;;;5108218;28;20451;-93
2021/11/13 02:03:10;;;;;;;24.87;17.37;;;;;;;;;;5109355;28;20446;-94
2021/11/13 02:05:37;;;;;;;26.20;16.20;;;;;;;;;;5107195;28;20459;-93
2021/11/13 02:08:04;;;;;;;35.57;16.30;;;;;;;;;;5106197;28;20433;-95
2021/11/13 02:10:34;;;;;;;23.47;15.80;;;0.90;99.90;;;;;;5110019;28;20453;-94
2021/11/13 02:13:02;;;;;;;32.63;15.70;;;;;;;;;;5111742;28;20494;-95
2021/11/13 02:15:29;;;;;;;28.00;15.87;;;0.90;99.90;;;;;;5111533;28;20431;-94
2021/11/13 02:18:00;;;;;;;26.80;16.57;;;0.90;99.90;;;;;;5105122;28;20455;-94
2021/11/13 02:20:37;;;;;;;35.47;15.23;;;0.90;99.90;;;;;;5109831;28;20456;-95
2021/11/13 02:23:08;;;;;;;53.63;17.10;;;0.90;99.90;;;;;;5112097;28;20469;-95
2021/11/13 02:25:35;;;;;;;65.23;16.77;;;0.90;99.90;;;;;;5110228;28;20452;-94
2021/11/13 02:28:02;;;;;;;42.93;15.40;;;;;;;;;;5110696;28;20441;-93
2021/11/13 02:30:29;;;;;;;29.93;16.00;;;;;;;;;;5111255;28;20955;-94
2021/11/13 02:32:57;;;;;;;72.70;16.80;;;;;;;;;;5111372;28;20485;-95
2021/11/13 02:35:26;;;;;;;35.63;14.50;;;0.90;99.90;;;;;;5108232;28;20436;-96
2021/11/13 02:37:55;;;;;;;36.83;15.90;;;0.90;99.90;;;;;;5104556;28;20459;-93
2021/11/13 02:40:23;;;;;;;60.13;17.23;;;;;;;;;;5100797;28;20441;-92
2021/11/13 02:42:50;;;;;;;41.57;16.10;;;;;;;;;;5112244;28;20444;-93
2021/11/13 02:45:18;;;;;;;31.50;13.93;;;0.80;99.90;;;;;;5109418;28;20447;-94
2021/11/13 02:47:48;;;;;;;53.20;14.87;;;0.70;99.90;;;;;;5107840;28;20433;-93
2021/11/13 02:50:18;;;;;;;39.53;15.20;;;0.70;99.90;;;;;;5108269;28;20501;-93
2021/11/13 02:52:47;;;;;;;85.53;17.13;;;0.70;99.90;;;;;;5109462;28;20483;-94
2021/11/13 02:55:16;;;;;;;28.43;14.80;;;;;;;;;;5101725;28;20429;-93
2021/11/13 02:57:43;;;;;;;43.37;16.60;;;0.80;99.90;;;;;;5103337;28;20464;-94
2021/11/13 03:00:13;;;;;;;31.00;15.83;;;0.70;99.90;;;;;;5105051;28;20459;-95
2021/11/13 03:02:41;;;;;;;33.00;15.53;;;;;;;;;;5102581;28;20460;-94
2021/11/13 03:05:23;;;;;;;28.33;15.30;;;0.80;99.90;;;;;;5102372;28;20853;-93
2021/11/13 03:07:50;;;;;;;50.53;14.07;;;;;;;;;;5106307;28;20455;-93
2021/11/13 03:10:19;;;;;;;41.53;15.93;;;;;;;;;;5106198;28;20449;-94
2021/11/13 03:12:46;;;;;;;22.90;14.00;;;;;;;;;;5106057;28;20507;-96
2021/11/13 03:15:17;;;;;;;30.07;14.90;;;0.80;99.90;;;;;;5106703;28;20456;-94
2021/11/13 03:17:44;;;;;;;67.33;16.07;;;;;;;;;;5108654;28;20460;-93
2021/11/13 03:20:14;;;;;;;73.53;16.50;;;0.70;99.90;;;;;;5107699;28;20433;-95
2021/11/13 03:22:42;;;;;;;57.70;15.47;;;0.70;99.90;;;;;;5108535;28;20822;-94
2021/11/13 03:25:14;;;;;;;97.30;16.80;;;0.70;99.90;;;;;;5092684;28;20509;-93
2021/11/13 03:27:45;;;;;;;18.03;8.90;;;0.80;99.90;;;;;;5097323;28;20453;-94
2021/11/13 03:30:13;;;;;;;35.60;14.47;;;0.60;99.90;;;;;;5092629;28;20460;-93
2021/11/13 03:32:41;;;;;;;52.63;15.80;;;;;;;;;;5101356;28;20961;-94
2021/11/13 03:35:08;;;;;;;45.10;17.33;;;;;;;;;;5104371;28;20441;-93
2021/11/13 03:37:36;;;;;;;26.63;14.37;;;;;;;;;;5104967;28;20453;-93
2021/11/13 03:40:03;;;;;;;26.97;14.83;;;;;;;;;;5108521;28;20451;-93
2021/11/13 03:42:32;;;;;;;24.53;15.20;;;;;;;;;;5102518;28;20449;-94
2021/11/13 03:45:01;;;;;;;30.77;15.50;;;0.60;99.90;;;;;;5100519;28;20495;-94
2021/11/13 03:47:28;;;;;;;22.10;14.67;;;;;;;;;;5102999;28;20449;-95
2021/11/13 03:49:55;;;;;;;17.53;13.30;;;;;;;;;;5107453;28;20414;-94
2021/11/13 03:52:22;;;;;;;20.87;14.10;;;;;;;;;;5105271;28;20484;-93
2021/11/13 03:54:50;;;;;;;26.27;15.53;;;;;;;;;;5110950;28;20466;-94
2021/11/13 03:57:17;;;;;;;25.27;16.10;;;;;;;;;;5107061;28;20458;-94
2021/11/13 03:59:44;;;;;;;24.73;15.10;;;;;;;;;;5105053;28;20421;-93
2021/11/13 04:02:16;;;;;;;24.23;15.63;;;;;;;;;;5105628;28;20444;-95
2021/11/13 04:04:43;;;;;;;21.13;14.60;;;;;;;;;;5102998;28;20455;-93
2021/11/13 04:07:11;;;;;;;22.80;14.90;;;;;;;;;;5105043;28;20437;-93
2021/11/13 04:09:39;;;;;;;24.40;14.60;;;;;;;;;;5104766;28;20443;-93
2021/11/13 04:12:13;;;;;;;20.67;14.50;;;0.80;99.90;;;;;;5098278;28;20459;-95
2021/11/13 04:14:42;;;;;;;19.47;14.00;;;0.80;99.90;;;;;;5103786;28;20955;-94
2021/11/13 04:17:10;;;;;;;20.63;14.33;;;0.90;99.90;;;;;;5106931;28;20451;-94
2021/11/13 04:19:39;;;;;;;20.63;14.07;;;;;;;;;;5106258;28;20439;-94
2021/11/13 04:22:07;;;;;;;19.40;13.83;;;0.90;99.90;;;;;;5106436;28;20494;-94
2021/11/13 04:24:34;;;;;;;19.70;14.23;;;;;;;;;;5099729;28;20463;-94
2021/11/13 04:27:02;;;;;;;18.43;14.93;;;;;;;;;;5101201;28;20463;-93
2021/11/13 04:29:29;;;;;;;19.43;14.67;;;;;;;;;;5100384;28;20460;-90
2021/11/13 04:31:56;;;;;;;20.27;14.67;;;;;;;;;;5101534;28;20958;-92
2021/11/13 04:34:24;;;;;;;20.63;14.10;;;;;;;;;;5097676;28;20484;-92
2021/11/13 04:36:54;;;;;;;21.80;15.10;;;1.30;99.90;;;;;;5102176;28;20441;-92
2021/11/13 04:39:24;;;;;;;22.03;15.50;;;1.30;99.90;;;;;;5101437;28;20451;-92
2021/11/13 04:41:52;;;;;;;18.57;13.87;;;1.20;99.90;;;;;;5100808;28;20455;-92
2021/11/13 04:44:19;;;;;;;19.37;13.40;;;;;;;;;;5108272;28;20453;-93
2021/11/13 04:46:46;;;;;;;19.67;14.30;;;;;;;;;;5110440;28;20448;-91
2021/11/13 04:49:13;;;;;;;22.70;15.57;;;;;;;;;;5103548;28;20449;-91
2021/11/13 04:51:40;;;;;;;20.47;15.57;;;;;;;;;;5100698;28;20482;-93
2021/11/13 04:54:09;;;;;;;17.93;14.30;;;;;;;;;;5098074;28;20485;-90
2021/11/13 04:56:37;;;;;;;18.93;14.43;;;;;;;;;;5099087;28;20452;-93
2021/11/13 04:59:04;;;;;;;17.00;13.70;;;;;;;;;;5101160;28;20915;-93
2021/11/13 05:01:31;;;;;;;22.30;15.23;;;;;;;;;;5104707;28;20460;-92
2021/11/13 05:03:59;;;;;;;21.07;15.40;;;;;;;;;;5099784;28;20457;-91
2021/11/13 05:06:28;;;;;;;21.70;15.27;;;;;;;;;;5096598;28;20441;-91
2021/11/13 05:08:55;;;;;;;20.90;14.20;;;;;;;;;;5097807;28;20540;-92
2021/11/13 05:11:24;;;;;;;18.73;14.57;;;1.60;99.90;;;;;;5097371;28;20796;-90
2021/11/13 05:13:51;;;;;;;18.60;14.70;;;;;;;;;;5097077;28;20491;-90
2021/11/13 05:16:18;;;;;;;21.17;15.80;;;;;;;;;;5097956;28;20451;-92
2021/11/13 05:18:46;;;;;;;23.40;15.00;;;1.80;99.90;;;;;;5098248;28;20928;-91
2021/11/13 05:21:13;;;;;;;22.97;14.60;;;;;;;;;;5097850;28;20451;-92
2021/11/13 05:23:41;;;;;;;23.27;15.77;;;;;;;;;;5094231;28;20478;-92
2021/11/13 05:26:08;;;;;;;20.47;15.63;;;;;;;;;;5097165;28;20456;-92
2021/11/13 05:28:37;;;;;;;23.57;15.60;;;;;;;;;;5100000;28;20920;-93
2021/11/13 05:31:04;;;;;;;30.60;15.57;;;;;;;;;;5093769;28;20433;-91
2021/11/13 05:33:31;;;;;;;19.77;13.17;;;;;;;;;;5095220;28;20486;-92
2021/11/13 05:35:58;;;;;;;20.50;14.50;;;;;;;;;;5096685;28;20531;-90
2021/11/13 05:38:26;;;;;;;22.87;15.10;;;;;;;;;;5096672;28;20452;-91
2021/11/13 05:40:53;;;;;;;18.13;13.80;;;;;;;;;;5094318;28;20449;-92
2021/11/13 05:43:20;;;;;;;16.90;14.00;;;;;;;;;;5096590;28;20811;-92
2021/11/13 05:45:49;;;;;;;17.27;12.80;;;;;;;;;;5096220;28;20452;-93
2021/11/13 05:48:16;;;;;;;22.27;13.33;;;;;;;;;;5094077;28;20474;-93
2021/11/13 05:50:43;;;;;;;24.43;13.23;;;;;;;;;;5097019;28;20453;-93
2021/11/13 05:53:10;;;;;;;27.13;14.27;;;;;;;;;;5097120;28;20976;-94
2021/11/13 05:55:40;;;;;;;20.70;13.47;;;1.90;99.90;;;;;;5097435;28;20490;-92
2021/11/13 05:58:07;;;;;;;19.93;13.33;;;;;;;;;;5095320;28;20496;-92
2021/11/13 06:00:34;;;;;;;17.77;12.93;;;;;;;;;;5095406;28;20468;-91
2021/11/13 06:03:03;;;;;;;16.37;12.93;;;1.90;99.90;;;;;;5096155;28;20502;-92
2021/11/13 06:05:30;;;;;;;14.87;12.60;;;;;;;;;;5094076;28;20461;-91
2021/11/13 06:07:58;;;;;;;18.93;13.30;;;;;;;;;;5095821;28;20451;-94
2021/11/13 06:10:25;;;;;;;19.30;14.97;;;;;;;;;;5096175;28;20939;-93
2021/11/13 06:12:52;;;;;;;21.17;15.43;;;;;;;;;;5096044;28;20939;-92
2021/11/13 06:15:19;;;;;;;16.90;12.77;;;;;;;;;;5096460;28;20500;-92
2021/11/13 06:17:46;;;;;;;23.80;13.50;;;;;;;;;;5096795;28;20789;-93
2021/11/13 06:20:15;;;;;;;17.10;12.13;;;2.30;99.90;;;;;;5094567;28;20441;-91
2021/11/13 06:22:43;;;;;;;18.43;12.10;;;2.40;99.90;;;;;;5094319;28;20476;-94
2021/11/13 06:25:12;;;;;;;17.80;12.67;;;2.50;99.90;;;;;;5097221;28;20448;-91
2021/11/13 06:27:39;;;;;;;15.10;11.23;;;;;;;;;;5094598;28;20489;-93
2021/11/13 06:30:08;;;;;;;17.80;10.97;;;2.70;99.90;;;;;;5096160;28;20441;-91
2021/11/13 06:32:35;;;;;;;15.17;10.40;;;;;;;;;;5096997;28;20444;-94
2021/11/13 06:35:03;;;;;;;20.30;11.27;;;;;;;;;;5096605;28;21033;-93
2021/11/13 06:37:31;;;;;;;18.10;11.33;;;;;;;;;;5094226;28;20471;-93
2021/11/13 06:39:59;;;;;;;15.20;9.77;;;;;;;;;;5096669;28;20451;-91
2021/11/13 06:42:26;;;;;;;22.50;11.10;;;;;;;;;;5099070;28;20453;-92
2021/11/13 06:44:53;;;;;;;21.73;12.10;;;;;;;;;;5098724;28;20453;-91
2021/11/13 06:47:20;;;;;;;22.80;11.67;;;;;;;;;;5100954;28;20449;-93
2021/11/13 06:49:48;;;;;;;14.80;10.57;;;;;;;;;;5100734;28;20443;-90
2021/11/13 06:52:15;;;;;;;19.00;12.87;;;;;;;;;;5098767;28;20479;-92
2021/11/13 06:54:43;;;;;;;17.77;11.03;;;3.30;99.90;;;;;;5096118;28;20476;-93
2021/11/13 06:57:10;;;;;;;17.00;10.47;;;;;;;;;;5104268;28;20447;-93
2021/11/13 06:59:37;;;;;;;17.67;11.43;;;;;;;;;;5102570;28;20449;-91
2021/11/13 07:02:04;;;;;;;16.00;10.90;;;;;;;;;;5100704;28;20453;-95
2021/11/13 07:04:32;;;;;;;17.53;11.20;;;;;;;;;;5104926;28;20465;-93
2021/11/13 07:06:59;;;;;;;14.47;11.40;;;;;;;;;;5101954;28;20444;-93
2021/11/13 07:09:26;;;;;;;18.00;11.60;;;;;;;;;;5103326;28;20842;-94
2021/11/13 07:11:54;;;;;;;19.77;13.00;;;3.40;99.90;;;;;;5096627;28;20440;-90
2021/11/13 07:14:21;;;;;;;24.73;14.00;;;;;;;;;;5091054;28;20546;-92
2021/11/13 07:16:48;;;;;;;27.87;13.03;;;;;;;;;;5099510;28;20470;-94
2021/11/13 07:19:16;;;;;;;35.87;14.57;;;;;;;;;;5094970;28;20455;-90
2021/11/13 07:21:43;;;;;;;26.60;14.50;;;;;;;;;;5097126;28;20442;-93
2021/11/13 07:24:10;;;;;;;20.53;14.27;;;;;;;;;;5094439;28;20817;-91
2021/11/13 07:26:41;;;;;;;50.53;13.83;;;;;;;;;;5097592;28;20456;-94
2021/11/13 07:29:12;;;;;;;26.77;14.93;;;3.50;99.90;;;;;;5097904;28;20626;-93
2021/11/13 07:31:39;;;;;;;19.00;13.00;;;;;;;;;;5099509;28;20821;-92
2021/11/13 07:34:07;;;;;;;20.80;12.80;;;;;;;;;;5101448;28;20451;-93
2021/11/13 07:36:34;;;;;;;15.33;12.90;;;;;;;;;;5101987;28;20476;-92
2021/11/13 07:39:01;;;;;;;17.30;12.73;;;;;;;;;;5098623;28;20460;-93
2021/11/13 07:41:28;;;;;;;13.97;11.07;;;;;;;;;;5093015;28;20448;-91
2021/11/13 07:43:55;;;;;;;15.10;11.83;;;;;;;;;;5094349;28;20445;-91
2021/11/13 07:46:23;;;;;;;13.30;10.83;;;3.60;99.90;;;;;;5091870;28;20444;-91
2021/11/13 07:48:50;;;;;;;15.63;11.67;;;;;;;;;;5094850;28;20440;-92
2021/11/13 07:51:19;;;;;;;17.40;10.30;;;;;;;;;;5092362;28;20521;-92
2021/11/13 07:53:46;;;;;;;11.10;9.07;;;;;;;;;;5098731;28;20468;-91
2021/11/13 07:56:13;;;;;;;6.97;4.83;;;;;;;;;;5099338;28;20487;-91
2021/11/13 07:58:40;;;;;;;10.30;6.90;;;4.50;99.90;;;;;;5099283;28;20455;-91
2021/11/13 08:01:08;;;;;;;8.23;6.43;;;;;;;;;;5098000;28;20939;-90
2021/11/13 08:03:36;;;;;;;8.00;5.10;;;;;;;;;;5096264;28;20466;-91
2021/11/13 08:06:03;;;;;;;4.63;3.13;;;;;;;;;;5096352;28;20445;-91
2021/11/13 08:08:30;;;;;;;5.37;4.60;;;;;;;;;;5100044;28;20458;-92
2021/11/13 08:10:58;;;;;;;7.27;4.00;;;;;;;;;;5099523;28;20955;-91
2021/11/13 08:13:25;;;;;;;8.00;4.67;;;;;;;;;;5094325;28;20490;-89
2021/11/13 08:15:53;;;;;;;4.97;4.20;;;;;;;;;;5094916;28;20515;-92
2021/11/13 08:18:21;;;;;;;4.50;3.20;;;;;;;;;;5097291;28;20445;-92
2021/11/13 08:20:49;;;;;;;5.10;3.63;;;;;;;;;;5099662;28;20444;-91
2021/11/13 08:23:17;;;;;;;6.97;4.27;;;;;;;;;;5099803;28;20444;-90
2021/11/13 08:25:46;;;;;;;9.40;6.00;;;6.20;99.90;;;;;;5099439;28;20483;-91
2021/11/13 08:28:13;;;;;;;10.30;3.80;;;;;;;;;;5098956;28;20944;-93
2021/11/13 08:30:41;;;;;;;5.00;4.03;;;6.50;99.90;;;;;;5099930;28;20455;-92
2021/11/13 08:33:08;;;;;;;6.00;4.40;;;;;;;;;;5103971;28;20445;-94
2021/11/13 08:35:35;;;;;;;7.93;5.50;;;;;;;;;;5101546;28;20483;-94
2021/11/13 08:38:05;;;;;;;7.50;6.00;;;;;;;;;;5094878;28;20451;-95
2021/11/13 08:40:32;;;;;;;9.03;6.40;;;;;;;;;;5101405;28;20546;-93
2021/11/13 08:42:59;;;;;;;9.13;6.53;;;;;;;;;;5102014;28;20534;-92
2021/11/13 08:45:26;;;;;;;7.07;5.43;;;;;;;;;;5098806;28;20445;-93
2021/11/13 08:47:54;;;;;;;7.73;5.53;;;;;;;;;;5103777;28;20445;-93
2021/11/13 08:50:23;;;;;;;7.63;5.60;;;6.90;99.90;;;;;;5100576;28;20492;-93
2021/11/13 08:52:54;;;;;;;6.30;5.57;;;7.10;99.90;;;;;;5096957;28;20491;-93
2021/11/13 08:55:24;;;;;;;8.83;5.60;;;7.10;99.90;;;;;;5098503;28;20494;-93
2021/11/13 08:57:52;;;;;;;6.50;5.50;;;7.10;99.90;;;;;;5099285;28;20485;-95
2021/11/13 09:00:24;;;;;;;6.87;4.53;;;7.20;99.90;;;;;;5098838;28;20935;-93
2021/11/13 09:02:52;;;;;;;10.83;7.47;;;;;;;;;;5098600;28;20466;-93
2021/11/13 09:05:19;;;;;;;9.07;6.93;;;;;;;;;;5096652;28;20439;-93
2021/11/13 09:07:46;;;;;;;9.10;5.70;;;;;;;;;;5098972;28;20454;-94
2021/11/13 09:10:13;;;;;;;8.50;6.60;;;;;;;;;;5099940;28;20463;-95
2021/11/13 09:12:42;;;;;;;10.83;5.13;;;;;;;;;;5097409;28;20796;-94
2021/11/13 09:15:13;;;;;;;7.33;5.70;;;7.30;99.90;;;;;;5092116;28;20481;-95
2021/11/13 09:17:40;;;;;;;5.17;4.03;;;;;;;;;;5096150;28;20462;-93
2021/11/13 09:20:08;;;;;;;5.50;4.17;;;7.30;99.90;;;;;;5097624;28;20449;-92
2021/11/13 09:22:36;;;;;;;9.03;6.40;;;;;;;;;;5098944;28;20807;-93
2021/11/13 09:25:08;;;;;;;7.17;5.73;;;7.90;99.90;;;;;;5094643;28;20467;-93
2021/11/13 09:27:35;;;;;;;8.20;7.23;;;;;;;;;;5095303;28;20486;-91
2021/11/13 09:30:05;;;;;;;7.43;6.33;;;8.40;99.90;;;;;;5097157;28;20449;-93
2021/11/13 09:32:32;;;;;;;7.60;3.57;;;;;;;;;;5096846;28;20458;-94
2021/11/13 09:34:59;;;;;;;5.27;4.40;;;;;;;;;;5098343;28;20483;-91
2021/11/13 09:37:31;;;;;;;9.00;4.77;;;;;;;;;;5101103;28;20448;-93
2021/11/13 09:39:59;;;;;;;4.47;3.80;;;;;;;;;;5101305;28;20443;-94
2021/11/13 09:42:26;;;;;;;3.37;2.10;;;;;;;;;;5103637;28;20452;-93
2021/11/13 09:44:54;;;;;;;5.10;3.97;;;;;;;;;;5101226;28;20454;-94
2021/11/13 09:47:22;;;;;;;5.47;3.80;;;;;;;;;;5101955;28;20444;-95
2021/11/13 09:49:50;;;;;;;5.67;4.37;;;;;;;;;;5101826;28;20847;-94
2021/11/13 09:52:17;;;;;;;4.70;3.97;;;;;;;;;;5103026;28;20509;-94
2021/11/13 09:54:45;;;;;;;2.20;2.00;;;9.10;99.90;;;;;;5107160;28;20455;-92
2021/11/13 09:57:12;;;;;;;2.97;2.67;;;9.00;99.90;;;;;;5113447;28;20486;-93
2021/11/13 09:59:39;;;;;;;6.10;4.00;;;;;;;;;;5109489;28;20444;-95
2021/11/13 10:02:07;;;;;;;6.27;4.23;;;;;;;;;;5103382;28;20501;-93
2021/11/13 10:04:35;;;;;;;5.40;4.20;;;;;;;;;;5100683;28;20466;-91
2021/11/13 10:07:02;;;;;;;5.63;3.33;;;;;;;;;;5101729;28;20450;-93
2021/11/13 10:09:29;;;;;;;3.57;2.87;;;;;;;;;;5098376;28;20455;-91
2021/11/13 10:11:57;;;;;;;6.93;4.17;;;;;;;;;;5104178;28;20941;-91
2021/11/13 10:14:35;;;;;;;4.90;3.70;;;8.50;99.90;;;;;;5102374;28;20839;-92
2021/11/13 10:17:02;;;;;;;7.90;4.20;;;;;;;;;;5107260;28;20491;-93
2021/11/13 10:19:29;;;;;;;4.47;3.33;;;;;;;;;;5105095;28;20474;-91
2021/11/13 10:21:58;;;;;;;4.87;3.73;;;8.70;99.90;;;;;;5099992;28;20448;-91
2021/11/13 10:24:28;;;;;;;3.77;3.27;;;8.80;99.90;;;;;;5098517;28;20455;-90
2021/11/13 10:27:00;;;;;;;4.27;3.20;;;8.90;99.90;;;;;;5097472;28;20950;-92
2021/11/13 10:29:30;;;;;;;4.10;3.70;;;9.00;99.90;;;;;;5100676;28;20444;-94
2021/11/13 10:31:59;;;;;;;4.17;3.20;;;9.00;99.90;;;;;;5098593;28;20931;-92
2021/11/13 10:34:30;;;;;;;4.93;3.87;;;9.20;99.90;;;;;;5099133;28;20440;-92
2021/11/13 10:37:03;;;;;;;4.20;3.57;;;9.40;99.90;;;;;;5096425;28;20521;-93
2021/11/13 10:39:33;;;;;;;4.60;3.60;;;9.70;99.90;;;;;;5099083;28;21005;-92
2021/11/13 10:42:04;;;;;;;6.13;4.20;;;10.00;99.90;;;;;;5098031;28;20483;-92
2021/11/13 10:44:32;;;;;;;5.87;3.90;;;10.30;99.90;;;;;;5095349;28;20469;-91
2021/11/13 10:47:00;;;;;;;5.80;3.70;;;10.70;99.90;;;;;;5095955;28;20448;-92
2021/11/13 10:49:27;;;;;;;4.00;3.60;;;;;;;;;;5099889;28;20482;-94
2021/11/13 10:51:57;;;;;;;3.93;3.53;;;10.60;99.90;;;;;;5044395;28;20472;-95
2021/11/13 10:54:25;;;;;;;4.10;2.80;;;10.30;99.90;;;;;;5078304;28;20628;-92
2021/11/13 10:56:55;;;;;;;3.23;2.93;;;10.20;99.90;;;;;;5075240;28;20495;-91
2021/11/13 10:59:25;;;;;;;5.00;3.43;;;10.10;99.90;;;;;;5077646;28;20810;-92
2021/11/13 11:01:53;;;;;;;5.03;3.73;;;10.10;99.90;;;;;;5077033;28;20457;-93
2021/11/13 11:04:22;;;;;;;4.43;2.93;;;10.00;99.90;;;;;;5076734;28;20540;-93
2021/11/13 11:06:52;;;;;;;3.93;3.50;;;9.90;99.90;;;;;;5077940;28;20445;-92
2021/11/13 11:09:22;;;;;;;14.47;8.00;;;9.90;99.90;;;;;;5080158;28;20493;-92
2021/11/13 11:11:53;;;;;;;5.90;3.20;;;9.90;99.90;;;;;;5088818;28;20454;-90
2021/11/13 11:14:21;;;;;;;8.93;4.77;;;9.90;99.90;;;;;;5097800;28;20479;-92
2021/11/13 11:16:51;;;;;;;5.63;4.00;;;9.90;99.90;;;;;;5081358;28;20499;-93
2021/11/13 11:19:20;;;;;;;4.70;4.03;;;9.90;99.90;;;;;;5079397;28;20457;-92
2021/11/13 11:21:53;;;;;;;11.33;6.40;;;9.90;99.90;;;;;;5078740;28;20508;-92
2021/11/13 11:24:23;;;;;;;7.90;5.30;;;9.90;99.90;;;;;;5075729;28;20464;-92
2021/11/13 11:27:02;;;;;;;7.90;4.77;;;9.80;99.90;;;;;;5072943;28;20444;-92
2021/11/13 11:29:31;;;;;;;6.63;4.73;;;9.90;99.90;;;;;;5075913;28;20451;-91
2021/11/13 11:32:01;;;;;;;7.60;5.30;;;9.90;99.90;;;;;;5082220;28;20435;-93
2021/11/13 11:34:31;;;;;;;9.83;5.27;;;9.90;99.90;;;;;;5085325;28;20453;-92
2021/11/13 11:37:06;;;;;;;9.33;5.30;;;9.90;99.90;;;;;;5081869;28;20484;-94
2021/11/13 11:39:33;;;;;;;7.90;5.40;;;;;;;;;;5086094;28;20464;-94
2021/11/13 11:42:02;;;;;;;5.80;5.20;;;;;;;;;;5083981;28;20452;-95
2021/11/13 11:44:29;;;;;;;11.20;5.00;;;;;;;;;;5082080;28;20483;-92
2021/11/13 11:46:57;;;;;;;5.77;4.87;;;9.90;99.90;;;;;;5082237;28;20475;-94
2021/11/13 11:49:26;;;;;;;6.17;4.50;;;9.90;99.90;;;;;;5084552;28;20460;-94
2021/11/13 11:51:53;;;;;;;5.20;4.67;;;;;;;;;;5081713;28;20477;-93
2021/11/13 11:54:20;;;;;;;5.30;4.23;;;;;;;;;;5099046;28;20455;-91
2021/11/13 11:56:47;;;;;;;4.83;3.73;;;;;;;;;;5102146;28;20502;-91
2021/11/13 11:59:16;;;;;;;7.17;5.20;;;;;;;;;;5101575;28;20451;-94
2021/11/13 12:01:44;;;;;;;7.00;5.67;;;10.00;99.90;;;;;;5103319;28;20455;-92
2021/11/13 12:04:31;;;;;;;7.23;5.70;;;10.10;99.90;;;;;;5097822;28;20450;-90
2021/11/13 12:06:58;;;;;;;6.50;5.10;;;10.10;99.90;;;;;;5104070;28;20454;-92
2021/11/13 12:09:27;;;;;;;6.00;4.90;;;10.20;99.90;;;;;;5103591;28;20448;-92
2021/11/13 12:12:16;;;;;;;6.07;4.43;;;10.20;99.90;;;;;;5104332;28;20472;-91
2021/11/13 12:14:45;;;;;;;5.20;4.30;;;10.10;99.90;;;;;;5095188;28;20968;-91
2021/11/13 12:17:33;;;;;;;6.13;4.17;;;10.30;99.90;;;;;;5098227;28;20502;-91
2021/11/13 12:20:36;;;;;;;13.43;7.83;;;10.20;99.90;;;;;;5097586;28;20942;-91
2021/11/13 12:23:08;;;;;;;10.40;5.33;;;10.20;99.90;;;;;;5101515;28;20463;-90
2021/11/13 12:25:38;;;;;;;8.20;5.30;;;10.30;99.90;;;;;;5097717;28;20474;-92
2021/11/13 12:28:12;;;;;;;10.43;6.03;;;10.30;99.90;;;;;;5097612;28;20440;-92
2021/11/13 12:30:46;;;;;;;14.07;6.87;;;10.20;99.90;;;;;;5107038;28;20445;-93
2021/11/13 12:33:46;;;;;;;23.60;10.10;;;10.20;99.90;;;;;;5099825;28;20451;-92
2021/11/13 12:36:17;;;;;;;5.00;2.43;;;9.80;99.90;;;;;;5015888;28;20494;-92
2021/11/13 12:38:48;;;;;;;5.37;3.80;;;10.10;99.90;;;;;;5085990;28;20455;-91
2021/11/13 12:41:18;;;;;;;19.93;6.43;;;10.10;99.90;;;;;;5101652;28;20814;-93
2021/11/13 12:44:07;;;;;;;11.93;8.90;;;10.10;99.90;;;;;;5102802;28;20567;-92
2021/11/13 12:46:39;;;;;;;6.33;4.80;;;10.10;99.90;;;;;;5077406;28;20459;-91
2021/11/13 12:49:27;;;;;;;6.40;4.77;;;10.10;99.90;;;;;;5101095;28;20474;-92
2021/11/13 12:52:28;;;;;;;5.70;4.70;;;10.10;99.90;;;;;;5098078;28;20484;-93
2021/11/13 12:55:27;;;;;;;6.80;4.50;;;10.20;99.90;;;;;;5059598;28;20455;-91
2021/11/13 12:58:07;;;;;;;7.07;3.60;;;10.10;99.90;;;;;;5095642;28;20463;-94
2021/11/13 13:00:37;;;;;;;6.10;4.10;;;10.10;99.90;;;;;;5103188;28;20456;-93
2021/11/13 13:03:14;;;;;;;6.87;4.53;;;10.10;99.90;;;;;;5102720;28;20456;-92
2021/11/13 13:05:41;;;;;;;5.80;4.37;;;;;;;;;;5099870;28;20458;-92
2021/11/13 13:08:09;;;;;;;8.43;4.63;;;10.00;99.90;;;;;;5099080;28;20448;-92
2021/11/13 13:10:37;;;;;;;11.27;6.93;;;;;;;;;;5099421;28;20440;-94
2021/11/13 13:13:08;;;;;;;6.50;4.00;;;10.00;99.90;;;;;;5099234;28;20472;-92
2021/11/13 13:15:37;;;;;;;11.97;7.23;;;10.10;99.90;;;;;;5096935;28;20446;-92
2021/11/13 13:18:12;;;;;;;6.87;5.30;;;10.10;99.90;;;;;;5103734;28;20449;-92
2021/11/13 13:20:43;;;;;;;6.53;5.50;;;10.10;99.90;;;;;;5099926;28;20442;-93
2021/11/13 13:23:11;;;;;;;13.73;8.63;;;10.00;99.90;;;;;;5102748;28;20442;-92
2021/11/13 13:25:41;;;;;;;25.63;15.77;;;10.00;99.90;;;;;;5098739;28;20943;-92
2021/11/13 13:28:11;;;;;;;8.70;6.93;;;10.00;99.90;;;;;;5105050;28;20450;-92
2021/11/13 13:30:39;;;;;;;11.67;7.10;;;10.00;99.90;;;;;;5102629;28;20467;-92
2021/11/13 13:33:07;;;;;;;16.07;10.20;;;;;;;;;;5099399;28;20538;-94
2021/11/13 13:35:37;;;;;;;10.10;6.57;;;10.00;99.90;;;;;;5102311;28;20448;-91
2021/11/13 13:38:06;;;;;;;14.93;9.93;;;10.00;99.90;;;;;;5101944;28;20499;-91
2021/11/13 13:40:37;;;;;;;9.30;4.83;;;10.00;99.90;;;;;;5105298;28;20455;-92
2021/11/13 13:43:19;;;;;;;6.40;4.77;;;10.00;99.90;;;;;;5101597;28;20462;-93
2021/11/13 13:45:48;;;;;;;13.83;8.70;;;;;;;;;;5116371;28;20432;-92
2021/11/13 13:48:19;;;;;;;5.83;4.50;;;9.90;99.90;;;;;;5115022;28;20504;-91
2021/11/13 13:50:49;;;;;;;34.23;19.60;;;9.90;99.90;;;;;;5099814;28;20452;-92